Time;durP1;ratioP1;P1;durP2;ratioP2;P2;SDS_P1;SDS_P2;PMS_P1;PMS_P2;Temp;Humidity;BMP_temperature;BMP_pressure;BME280_temperature;BME280_humidity;BME280_pressure;Samples;Min_cycle;Max_cycle;Signal;HPM_P1;HPM_P2
2021/05/24 00:01:47;;;;;;;;;;;12.60;84.00;;;;;;5075343;28;20324;-83
2021/05/24 00:04:13;;;;;;;;;;;12.60;83.80;;;;;;5076622;28;19909;-82
2021/05/24 00:06:38;;;;;;;;;;;12.60;83.50;;;;;;5075153;28;19912;-82
2021/05/24 00:09:04;;;;;;;;;;;12.60;83.50;;;;;;5073930;28;19918;-83
2021/05/24 00:11:31;;;;;;;;;;;12.60;83.70;;;;;;5075975;28;19915;-83
2021/05/24 00:13:56;;;;;;;;;;;12.70;83.80;;;;;;5076555;28;20277;-83
2021/05/24 00:16:23;;;;;;;;;;;12.70;83.60;;;;;;5076024;28;20000;-83
2021/05/24 00:18:52;;;;;;;;;;;12.70;83.80;;;;;;5074474;28;19987;-84
2021/05/24 00:21:18;;;;;;;;;;;12.70;83.90;;;;;;5074041;28;19950;-83
2021/05/24 00:23:44;;;;;;;;;;;12.70;83.90;;;;;;5075836;28;19916;-85
2021/05/24 00:26:10;;;;;;;;;;;12.70;83.90;;;;;;5075961;28;20345;-82
2021/05/24 00:28:35;;;;;;;;;;;12.70;84.10;;;;;;5074784;28;19928;-84
2021/05/24 00:31:01;;;;;;;;;;;12.70;84.40;;;;;;5073811;28;19908;-82
2021/05/24 00:33:27;;;;;;;;;;;12.70;84.40;;;;;;5076001;28;19924;-82
2021/05/24 00:35:52;;;;;;;;;;;12.70;84.40;;;;;;5075351;28;19909;-83
2021/05/24 00:38:17;;;;;;;;;;;12.70;84.60;;;;;;5075165;28;20015;-82
2021/05/24 00:40:43;;;;;;;;;;;12.70;84.70;;;;;;5074351;28;20272;-82
2021/05/24 00:43:09;;;;;;;;;;;12.70;84.90;;;;;;5073265;28;19942;-82
2021/05/24 00:45:35;;;;;;;;;;;12.70;85.20;;;;;;5074177;28;19923;-84
2021/05/24 00:48:00;;;;;;;;;;;12.70;85.20;;;;;;5075950;28;19924;-83
2021/05/24 00:50:26;;;;;;;;;;;12.70;85.30;;;;;;5073405;28;19916;-83
2021/05/24 00:52:51;;;;;;;;;;;12.70;85.60;;;;;;5074021;28;20329;-82
2021/05/24 00:55:17;;;;;;;;;;;12.70;85.80;;;;;;5075781;28;20265;-82
2021/05/24 00:57:43;;;;;;;;;;;12.70;85.80;;;;;;5076842;28;19913;-84
2021/05/24 01:00:12;;;;;;;;;;;12.60;86.10;;;;;;5079048;28;19919;-83
2021/05/24 01:02:37;;;;;;;;;;;12.70;86.20;;;;;;5077835;28;19962;-83
2021/05/24 01:05:03;;;;;;;;;;;12.70;86.30;;;;;;5079413;28;19912;-83
2021/05/24 01:07:29;;;;;;;;;;;12.70;86.40;;;;;;5079279;28;20494;-83
2021/05/24 01:09:55;;;;;;;;;;;12.60;86.70;;;;;;5078316;28;20415;-83
2021/05/24 01:12:20;;;;;;;;;;;12.60;86.90;;;;;;5079328;28;19961;-84
2021/05/24 01:14:46;;;;;;;;;;;12.60;87.10;;;;;;5078208;28;19908;-82
2021/05/24 01:17:11;;;;;;;;;;;12.60;87.50;;;;;;5077707;28;20009;-84
2021/05/24 01:19:47;;;;;;;;;;;12.60;87.70;;;;;;5076452;28;19916;-82
2021/05/24 01:22:19;;;;;;;;;;;12.60;87.70;;;;;;5076255;28;20389;-84
2021/05/24 01:24:46;;;;;;;;;;;12.60;88.00;;;;;;5076143;28;20340;-84
2021/05/24 01:27:12;;;;;;;;;;;12.60;88.10;;;;;;5075784;28;20280;-82
2021/05/24 01:29:38;;;;;;;;;;;12.60;88.30;;;;;;5075219;28;19913;-83
2021/05/24 01:32:03;;;;;;;;;;;12.70;88.30;;;;;;5076141;28;20057;-83
2021/05/24 01:34:29;;;;;;;;;;;12.60;88.80;;;;;;5076104;28;20307;-82
2021/05/24 01:36:55;;;;;;;;;;;12.70;88.80;;;;;;5077756;28;20562;-82
2021/05/24 01:39:20;;;;;;;;;;;12.60;88.90;;;;;;5075644;28;19912;-83
2021/05/24 01:41:46;;;;;;;;;;;12.70;89.00;;;;;;5075546;28;19921;-82
2021/05/24 01:44:12;;;;;;;;;;;12.70;89.20;;;;;;5076482;28;19908;-82
2021/05/24 01:46:37;;;;;;;;;;;12.70;89.20;;;;;;5075770;28;19920;-84
2021/05/24 01:49:03;;;;;;;;;;;12.70;89.40;;;;;;5076644;28;20371;-82
2021/05/24 01:51:29;;;;;;;;;;;12.70;89.40;;;;;;5075894;28;19908;-83
2021/05/24 01:53:54;;;;;;;;;;;12.70;89.40;;;;;;5075546;28;19908;-82
2021/05/24 01:56:20;;;;;;;;;;;12.60;89.60;;;;;;5077540;28;20411;-85
2021/05/24 01:58:45;;;;;;;;;;;12.70;89.80;;;;;;5077430;28;20319;-86
2021/05/24 02:01:11;;;;;;;;;;;12.70;90.00;;;;;;5075551;28;20428;-83
2021/05/24 02:03:37;;;;;;;;;;;12.60;90.20;;;;;;5076056;28;19913;-83
2021/05/24 02:06:03;;;;;;;;;;;12.60;90.20;;;;;;5076033;28;19955;-82
2021/05/24 02:08:29;;;;;;;;;;;12.60;90.30;;;;;;5075908;28;19912;-83
2021/05/24 02:10:54;;;;;;;;;;;12.60;90.30;;;;;;5075234;28;19908;-84
2021/05/24 02:13:20;;;;;;;;;;;12.60;90.40;;;;;;5075541;28;19909;-86
2021/05/24 02:15:46;;;;;;;;;;;12.60;90.40;;;;;;5075500;28;20001;-83
2021/05/24 02:18:11;;;;;;;;;;;12.60;90.50;;;;;;5074455;28;19912;-83
2021/05/24 02:20:37;;;;;;;;;;;12.60;90.80;;;;;;5074003;28;19912;-83
2021/05/24 02:23:03;;;;;;;;;;;12.60;90.60;;;;;;5075360;28;19951;-83
2021/05/24 02:25:29;;;;;;;;;;;12.60;90.60;;;;;;5075619;28;20373;-82
2021/05/24 02:27:55;;;;;;;;;;;12.60;90.70;;;;;;5077376;28;19995;-82
2021/05/24 02:30:21;;;;;;;;;;;12.60;90.70;;;;;;5075454;28;19966;-83
2021/05/24 02:32:47;;;;;;;;;;;12.60;90.60;;;;;;5074903;28;19912;-83
2021/05/24 02:35:15;;;;;;;;;;;12.60;90.50;;;;;;5075627;28;19958;-84
2021/05/24 02:37:41;;;;;;;;;;;12.60;90.50;;;;;;5077273;28;19916;-82
2021/05/24 02:40:07;;;;;;;;;;;12.60;90.70;;;;;;5074354;28;19916;-85
2021/05/24 02:42:33;;;;;;;;;;;12.60;90.60;;;;;;5076358;28;19916;-83
2021/05/24 02:44:59;;;;;;;;;;;12.60;90.70;;;;;;5076797;28;19916;-85
2021/05/24 02:47:24;;;;;;;;;;;12.60;90.70;;;;;;5075253;28;19967;-82
2021/05/24 02:49:50;;;;;;;;;;;12.60;90.70;;;;;;5074628;28;20010;-84
2021/05/24 02:52:15;;;;;;;;;;;12.60;90.70;;;;;;5076633;28;19958;-83
2021/05/24 02:54:41;;;;;;;;;;;12.60;90.70;;;;;;5076287;28;19915;-82
2021/05/24 02:57:07;;;;;;;;;;;12.60;90.70;;;;;;5076854;28;19912;-82
2021/05/24 02:59:32;;;;;;;;;;;12.60;90.60;;;;;;5074380;28;19913;-83
2021/05/24 03:02:01;;;;;;;;;;;12.60;90.60;;;;;;5076753;28;19908;-83
2021/05/24 03:04:28;;;;;;;;;;;12.60;90.70;;;;;;5076210;28;20308;-82
2021/05/24 03:06:54;;;;;;;;;;;12.60;90.60;;;;;;5076644;28;19932;-83
2021/05/24 03:09:19;;;;;;;;;;;12.70;90.70;;;;;;5075820;28;20380;-85
2021/05/24 03:11:45;;;;;;;;;;;12.70;90.70;;;;;;5074802;28;19998;-82
2021/05/24 03:14:10;;;;;;;;;;;12.70;91.00;;;;;;5076426;28;19916;-82
2021/05/24 03:16:37;;;;;;;;;;;12.70;90.60;;;;;;5075222;28;19913;-83
2021/05/24 03:19:03;;;;;;;;;;;12.60;90.70;;;;;;5074508;28;20007;-82
2021/05/24 03:21:29;;;;;;;;;;;12.70;90.70;;;;;;5076391;28;20384;-82
2021/05/24 03:23:54;;;;;;;;;;;12.70;90.70;;;;;;5076628;28;19909;-82
2021/05/24 03:26:20;;;;;;;;;;;12.60;90.70;;;;;;5074784;28;20323;-84
2021/05/24 03:28:45;;;;;;;;;;;12.70;90.70;;;;;;5074839;28;19909;-85
2021/05/24 03:31:11;;;;;;;;;;;12.70;90.70;;;;;;5075800;28;19909;-82
2021/05/24 03:33:37;;;;;;;;;;;12.70;90.70;;;;;;5075064;28;19919;-83
2021/05/24 03:36:05;;;;;;;;;;;12.70;90.70;;;;;;5074776;28;19916;-83
2021/05/24 03:38:31;;;;;;;;;;;12.70;90.70;;;;;;5074811;28;19916;-84
2021/05/24 03:40:56;;;;;;;;;;;12.70;90.70;;;;;;5074767;28;20391;-83
2021/05/24 03:43:22;;;;;;;;;;;12.70;90.70;;;;;;5075053;28;19990;-82
2021/05/24 03:45:48;;;;;;;;;;;12.70;90.70;;;;;;5076452;28;19934;-84
2021/05/24 03:48:13;;;;;;;;;;;12.70;90.70;;;;;;5076519;28;19958;-83
2021/05/24 03:50:39;;;;;;;;;;;12.70;90.70;;;;;;5074461;28;19915;-82
2021/05/24 03:53:04;;;;;;;;;;;12.70;90.60;;;;;;5074365;28;20389;-82
2021/05/24 03:55:30;;;;;;;;;;;12.70;90.60;;;;;;5075141;28;19934;-84
2021/05/24 03:57:55;;;;;;;;;;;12.70;90.50;;;;;;5075183;28;19908;-84
2021/05/24 04:00:21;;;;;;;;;;;12.70;90.50;;;;;;5075610;28;19976;-85
2021/05/24 04:02:46;;;;;;;;;;;12.70;90.60;;;;;;5076401;28;19919;-83
2021/05/24 04:05:19;;;;;;;;;;;12.70;90.60;;;;;;5077342;28;20003;-82
2021/05/24 04:07:50;;;;;;;;;;;12.70;90.40;;;;;;5075573;28;19909;-84
2021/05/24 04:10:17;;;;;;;;;;;12.70;90.60;;;;;;5074756;28;19908;-84
2021/05/24 04:12:43;;;;;;;;;;;12.80;90.40;;;;;;5075073;28;19908;-83
2021/05/24 04:15:09;;;;;;;;;;;12.80;90.60;;;;;;5077472;28;19919;-83
2021/05/24 04:17:37;;;;;;;;;;;12.80;90.40;;;;;;5074856;28;19924;-82
2021/05/24 04:20:04;;;;;;;;;;;12.80;90.40;;;;;;5074783;28;19966;-83
2021/05/24 04:22:29;;;;;;;;;;;12.80;90.50;;;;;;5075332;28;20326;-84
2021/05/24 04:24:55;;;;;;;;;;;12.80;90.20;;;;;;5075720;28;19971;-83
2021/05/24 04:27:20;;;;;;;;;;;12.80;90.40;;;;;;5075877;28;19959;-84
2021/05/24 04:29:46;;;;;;;;;;;12.80;90.30;;;;;;5076617;28;19915;-84
2021/05/24 04:32:12;;;;;;;;;;;12.80;90.30;;;;;;5081727;28;20342;-84
2021/05/24 04:34:37;;;;;;;;;;;12.90;90.30;;;;;;5084860;28;19939;-85
2021/05/24 04:37:03;;;;;;;;;;;12.80;90.20;;;;;;5083239;28;19908;-84
2021/05/24 04:39:28;;;;;;;;;;;12.80;90.20;;;;;;5082647;28;19912;-83
2021/05/24 04:41:54;;;;;;;;;;;12.90;90.20;;;;;;5083746;28;20361;-85
2021/05/24 04:44:19;;;;;;;;;;;12.80;90.30;;;;;;5083720;28;20247;-85
2021/05/24 04:46:46;;;;;;;;;;;12.90;90.20;;;;;;5083086;28;19920;-84
2021/05/24 04:49:11;;;;;;;;;;;12.90;90.20;;;;;;5082782;28;19999;-85
2021/05/24 04:51:37;;;;;;;;;;;12.90;90.20;;;;;;5083688;28;19947;-84
2021/05/24 04:54:04;;;;;;;;;;;12.90;90.10;;;;;;5084704;28;19913;-84
2021/05/24 04:56:29;;;;;;;;;;;12.90;90.00;;;;;;5084466;28;19915;-82
2021/05/24 04:58:55;;;;;;;;;;;12.90;89.90;;;;;;5079727;28;20007;-82
2021/05/24 05:01:20;;;;;;;;;;;12.90;90.00;;;;;;5078518;28;19915;-82
2021/05/24 05:03:46;;;;;;;;;;;12.90;90.00;;;;;;5078519;28;20277;-82
2021/05/24 05:06:11;;;;;;;;;;;12.90;90.00;;;;;;5080037;28;19909;-82
2021/05/24 05:08:37;;;;;;;;;;;12.90;90.00;;;;;;5078798;28;19917;-82
2021/05/24 05:11:02;;;;;;;;;;;13.00;90.00;;;;;;5079910;28;19912;-84
2021/05/24 05:13:28;;;;;;;;;;;13.00;90.00;;;;;;5080348;28;19912;-82
2021/05/24 05:15:53;;;;;;;;;;;13.00;89.70;;;;;;5079485;28;20364;-84
2021/05/24 05:18:19;;;;;;;;;;;13.00;89.60;;;;;;5082351;28;19951;-84
2021/05/24 05:20:44;;;;;;;;;;;13.00;89.40;;;;;;5081833;28;20272;-84
2021/05/24 05:23:10;;;;;;;;;;;13.00;89.40;;;;;;5081690;28;19932;-85
2021/05/24 05:25:35;;;;;;;;;;;13.00;89.20;;;;;;5082289;28;20358;-85
2021/05/24 05:28:01;;;;;;;;;;;13.00;89.50;;;;;;5083243;28;20003;-84
2021/05/24 05:30:26;;;;;;;;;;;13.00;89.40;;;;;;5081680;28;19917;-82
2021/05/24 05:32:52;;;;;;;;;;;13.10;89.40;;;;;;5079325;28;20003;-82
2021/05/24 05:35:19;;;;;;;;;;;13.10;89.50;;;;;;5080340;28;20023;-82
2021/05/24 05:37:47;;;;;;;;;;;13.10;89.50;;;;;;5079479;28;19909;-82
2021/05/24 05:40:16;;;;;;;;;;;13.10;89.20;;;;;;5079858;28;20292;-84
2021/05/24 05:42:42;;;;;;;;;;;13.20;89.20;;;;;;5077887;28;20400;-83
2021/05/24 05:45:08;;;;;;;;;;;13.20;89.20;;;;;;5077235;28;19909;-82
2021/05/24 05:47:34;;;;;;;;;;;13.20;88.90;;;;;;5078517;28;19913;-82
2021/05/24 05:49:59;;;;;;;;;;;13.20;89.00;;;;;;5077883;28;20284;-84
2021/05/24 05:52:25;;;;;;;;;;;13.20;88.90;;;;;;5079415;28;20265;-83
2021/05/24 05:54:50;;;;;;;;;;;13.20;89.00;;;;;;5078655;28;19908;-84
2021/05/24 05:57:16;;;;;;;;;;;13.20;88.70;;;;;;5079123;28;19913;-83
2021/05/24 05:59:41;;;;;;;;;;;13.20;88.70;;;;;;5078080;28;19912;-85
2021/05/24 06:02:07;;;;;;;;;;;13.30;89.20;;;;;;5078742;28;19919;-83
2021/05/24 06:04:33;;;;;;;;;;;13.30;88.40;;;;;;5080444;28;19908;-84
2021/05/24 06:06:58;;;;;;;;;;;13.30;88.80;;;;;;5080362;28;19916;-84
2021/05/24 06:09:24;;;;;;;;;;;13.30;88.90;;;;;;5079773;28;19909;-83
2021/05/24 06:11:52;;;;;;;;;;;13.40;88.30;;;;;;5079625;28;19908;-83
2021/05/24 06:14:19;;;;;;;;;;;13.40;88.00;;;;;;5080768;28;19913;-83
2021/05/24 06:16:46;;;;;;;;;;;13.50;87.70;;;;;;5079076;28;19912;-83
2021/05/24 06:19:12;;;;;;;;;;;13.50;87.90;;;;;;5079818;28;19913;-85
2021/05/24 06:21:37;;;;;;;;;;;13.50;87.80;;;;;;5080180;28;19909;-84
2021/05/24 06:24:03;;;;;;;;;;;13.60;87.70;;;;;;5078696;28;19962;-84
2021/05/24 06:26:29;;;;;;;;;;;13.60;87.40;;;;;;5080814;28;20282;-82
2021/05/24 06:28:54;;;;;;;;;;;13.60;87.00;;;;;;5079448;28;19915;-84
2021/05/24 06:31:20;;;;;;;;;;;13.70;87.30;;;;;;5078337;28;19951;-85
2021/05/24 06:33:45;;;;;;;;;;;13.80;87.20;;;;;;5078146;28;19908;-83
2021/05/24 06:36:11;;;;;;;;;;;13.80;87.10;;;;;;5080468;28;19909;-84
2021/05/24 06:38:36;;;;;;;;;;;13.80;87.00;;;;;;5078806;28;19917;-83
2021/05/24 06:41:02;;;;;;;;;;;13.90;86.30;;;;;;5076964;28;19912;-84
2021/05/24 06:43:27;;;;;;;;;;;13.90;85.80;;;;;;5079760;28;19920;-83
2021/05/24 06:45:53;;;;;;;;;;;13.90;86.20;;;;;;5080733;28;19912;-84
2021/05/24 06:48:18;;;;;;;;;;;13.90;85.30;;;;;;5080411;28;19912;-85
2021/05/24 06:50:44;;;;;;;;;;;14.00;85.60;;;;;;5079158;28;19908;-83
2021/05/24 06:53:09;;;;;;;;;;;14.00;85.60;;;;;;5078130;28;20307;-84
2021/05/24 06:55:35;;;;;;;;;;;14.00;85.50;;;;;;5078110;28;19908;-85
2021/05/24 06:58:01;;;;;;;;;;;14.00;85.40;;;;;;5076887;28;20003;-83
2021/05/24 07:00:27;;;;;;;;;;;14.10;85.50;;;;;;5076432;28;19927;-85
2021/05/24 07:02:53;;;;;;;;;;;14.20;84.90;;;;;;5076556;28;19909;-84
2021/05/24 07:05:19;;;;;;;;;;;14.20;84.70;;;;;;5076190;28;19909;-83
2021/05/24 07:07:44;;;;;;;;;;;14.30;84.50;;;;;;5077254;28;19916;-83
2021/05/24 07:10:10;;;;;;;;;;;14.30;84.50;;;;;;5076046;28;19909;-82
2021/05/24 07:12:36;;;;;;;;;;;14.40;84.60;;;;;;5076693;28;19913;-83
2021/05/24 07:15:03;;;;;;;;;;;14.40;84.90;;;;;;5076291;28;19915;-82
2021/05/24 07:17:29;;;;;;;;;;;14.40;85.10;;;;;;5076496;28;19909;-84
2021/05/24 07:19:55;;;;;;;;;;;14.50;84.60;;;;;;5076753;28;19916;-83
2021/05/24 07:22:20;;;;;;;;;;;14.50;83.80;;;;;;5075658;28;19908;-82
2021/05/24 07:24:46;;;;;;;;;;;14.60;84.20;;;;;;5075746;28;19916;-83
2021/05/24 07:27:11;;;;;;;;;;;14.60;84.30;;;;;;5076197;28;20015;-84
2021/05/24 07:29:37;;;;;;;;;;;14.70;83.50;;;;;;5075006;28;20023;-83
2021/05/24 07:32:08;;;;;;;;;;;14.70;83.50;;;;;;5075361;28;19908;-84
2021/05/24 07:34:33;;;;;;;;;;;14.70;83.60;;;;;;5075690;28;19909;-84
2021/05/24 07:36:59;;;;;;;;;;;14.70;83.50;;;;;;5076024;28;20011;-83
2021/05/24 07:39:25;;;;;;;;;;;14.70;83.60;;;;;;5075621;28;20418;-83
2021/05/24 07:41:50;;;;;;;;;;;14.80;83.50;;;;;;5075205;28;19921;-83
2021/05/24 07:44:19;;;;;;;;;;;14.80;83.70;;;;;;5077015;28;19912;-83
2021/05/24 07:46:44;;;;;;;;;;;14.80;83.70;;;;;;5074832;28;19952;-84
2021/05/24 07:49:10;;;;;;;;;;;14.90;84.00;;;;;;5076415;28;20380;-85
2021/05/24 07:51:36;;;;;;;;;;;14.90;84.10;;;;;;5075360;28;19915;-84
2021/05/24 07:54:01;;;;;;;;;;;14.90;83.80;;;;;;5076004;28;19909;-83
2021/05/24 07:56:27;;;;;;;;;;;14.90;83.40;;;;;;5075982;28;19912;-84
2021/05/24 07:58:52;;;;;;;;;;;14.90;83.70;;;;;;5077065;28;20324;-85
2021/05/24 08:01:18;;;;;;;;;;;14.90;83.50;;;;;;5075322;28;19930;-83
2021/05/24 08:03:43;;;;;;;;;;;14.90;82.80;;;;;;5076988;28;19931;-83
2021/05/24 08:06:09;;;;;;;;;;;14.90;82.70;;;;;;5076122;28;19908;-83
2021/05/24 08:08:34;;;;;;;;;;;14.90;82.20;;;;;;5074908;28;19908;-85
2021/05/24 08:10:59;;;;;;;;;;;14.90;83.10;;;;;;5074215;28;19908;-83
2021/05/24 08:13:26;;;;;;;;;;;14.90;84.10;;;;;;5076633;28;19915;-83
2021/05/24 08:15:52;;;;;;;;;;;14.90;83.60;;;;;;5074938;28;19931;-83
2021/05/24 08:18:18;;;;;;;;;;;14.90;84.20;;;;;;5074657;28;19908;-84
2021/05/24 08:20:43;;;;;;;;;;;14.90;84.00;;;;;;5074820;28;20345;-83
2021/05/24 08:23:09;;;;;;;;;;;14.90;84.50;;;;;;5076355;28;19916;-84
2021/05/24 08:25:34;;;;;;;;;;;15.00;84.20;;;;;;5076955;28;19908;-83
2021/05/24 08:28:00;;;;;;;;;;;15.00;83.90;;;;;;5075345;28;19915;-83
2021/05/24 08:30:26;;;;;;;;;;;15.00;83.40;;;;;;5074498;28;20365;-83
2021/05/24 08:32:51;;;;;;;;;;;15.00;83.40;;;;;;5076127;28;19916;-83
2021/05/24 08:35:17;;;;;;;;;;;15.00;83.20;;;;;;5076101;28;20388;-84
2021/05/24 08:37:42;;;;;;;;;;;15.10;83.00;;;;;;5076831;28;19956;-84
2021/05/24 08:40:08;;;;;;;;;;;15.10;82.90;;;;;;5075107;28;19912;-84
2021/05/24 08:42:38;;;;;;;;;;;15.10;83.10;;;;;;5075379;28;19924;-84
2021/05/24 08:45:04;;;;;;;;;;;15.10;82.80;;;;;;5076953;28;19909;-85
2021/05/24 08:47:31;;;;;;;;;;;15.10;82.30;;;;;;5077459;28;20003;-83
2021/05/24 08:49:57;;;;;;;;;;;15.10;82.30;;;;;;5076894;28;19912;-84
2021/05/24 08:52:22;;;;;;;;;;;15.10;82.20;;;;;;5075587;28;19909;-83
2021/05/24 08:54:48;;;;;;;;;;;15.10;82.30;;;;;;5076012;28;19908;-82
2021/05/24 08:57:13;;;;;;;;;;;15.10;82.40;;;;;;5075764;28;19951;-84
2021/05/24 08:59:39;;;;;;;;;;;15.10;82.10;;;;;;5075807;28;19960;-84
2021/05/24 09:02:05;;;;;;;;;;;15.20;82.30;;;;;;5075667;28;19909;-83
2021/05/24 09:04:43;;;;;;;;;;;15.20;82.40;;;;;;5077039;28;19908;-83
2021/05/24 09:07:09;;;;;;;;;;;15.20;81.90;;;;;;5075812;28;19912;-83
2021/05/24 09:09:35;;;;;;;;;;;15.20;82.30;;;;;;5076546;28;19908;-83
2021/05/24 09:12:03;;;;;;;;;;;15.20;82.10;;;;;;5077192;28;19915;-83
2021/05/24 09:14:30;;;;;;;;;;;15.20;82.30;;;;;;5075803;28;20368;-83
2021/05/24 09:17:00;;;;;;;;;;;15.20;82.70;;;;;;5077602;28;19913;-84
2021/05/24 09:19:26;;;;;;;;;;;15.20;83.60;;;;;;5078976;28;20391;-83
2021/05/24 09:21:54;;;;;;;;;;;15.30;84.90;;;;;;5081017;28;19915;-84
2021/05/24 09:24:24;;;;;;;;;;;15.30;85.10;;;;;;5080012;28;19908;-85
2021/05/24 09:26:50;;;;;;;;;;;15.30;83.50;;;;;;5081964;28;20384;-83
2021/05/24 09:29:22;;;;;;;;;;;15.40;83.30;;;;;;5079161;28;20387;-84
2021/05/24 09:31:47;;;;;;;;;;;15.40;83.40;;;;;;5079842;28;19987;-83
2021/05/24 09:34:18;;;;;;;;;;;15.50;82.80;;;;;;5080510;28;20373;-84
2021/05/24 09:36:44;;;;;;;;;;;15.50;82.10;;;;;;5080174;28;20323;-84
2021/05/24 09:39:11;;;;;;;;;;;15.60;80.60;;;;;;5080886;28;20202;-84
2021/05/24 09:41:47;;;;;;;;;;;15.60;80.40;;;;;;5080706;28;20357;-85
2021/05/24 09:44:32;;;;;;;;;;;15.60;80.30;;;;;;5080239;28;19908;-86
2021/05/24 09:46:58;;;;;;;;;;;15.60;80.80;;;;;;5080944;28;19975;-85
2021/05/24 09:49:24;;;;;;;;;;;15.50;81.30;;;;;;5079473;28;19989;-84
2021/05/24 09:51:51;;;;;;;;;;;15.50;81.40;;;;;;5079800;28;19995;-83
2021/05/24 09:54:17;;;;;;;;;;;15.50;79.80;;;;;;5080029;28;19918;-85
2021/05/24 09:56:46;;;;;;;;;;;15.50;79.30;;;;;;5080031;28;19971;-85
2021/05/24 09:59:16;;;;;;;;;;;15.40;77.00;;;;;;5080422;28;19912;-84
2021/05/24 10:01:44;;;;;;;;;;;15.50;76.20;;;;;;5081032;28;19909;-84
2021/05/24 10:04:20;;;;;;;;;;;15.40;76.80;;;;;;5080455;28;19909;-84
2021/05/24 10:06:46;;;;;;;;;;;15.40;79.30;;;;;;5079209;28;19915;-82
2021/05/24 10:09:12;;;;;;;;;;;15.40;80.70;;;;;;5078064;28;19908;-82
2021/05/24 10:11:39;;;;;;;;;;;15.30;79.60;;;;;;5078479;28;19913;-82
2021/05/24 10:14:06;;;;;;;;;;;15.30;80.50;;;;;;5078862;28;19924;-82
2021/05/24 10:16:34;;;;;;;;;;;15.20;81.30;;;;;;5077773;28;19909;-82
2021/05/24 10:19:00;;;;;;;;;;;15.20;84.40;;;;;;5078021;28;19916;-82
2021/05/24 10:21:26;;;;;;;;;;;15.10;86.10;;;;;;5077152;28;19916;-82
2021/05/24 10:23:52;;;;;;;;;;;15.10;87.20;;;;;;5077760;28;19908;-84
2021/05/24 10:26:18;;;;;;;;;;;15.00;88.00;;;;;;5077920;28;19916;-83
2021/05/24 10:28:45;;;;;;;;;;;15.00;88.70;;;;;;5078723;28;20042;-82
2021/05/24 10:31:24;;;;;;;;;;;14.90;90.10;;;;;;5078069;28;19908;-82
2021/05/24 10:33:50;;;;;;;;;;;14.90;91.10;;;;;;5077861;28;19908;-83
2021/05/24 10:36:24;;;;;;;;;;;14.90;91.30;;;;;;5077265;28;19931;-83
2021/05/24 10:39:00;;;;;;;;;;;14.90;91.50;;;;;;5076474;28;20365;-82
2021/05/24 10:41:39;;;;;;;;;;;14.90;91.90;;;;;;5077179;28;19913;-82
2021/05/24 10:44:08;;;;;;;;;;;14.90;91.90;;;;;;5075597;28;20353;-81
2021/05/24 10:46:34;;;;;;;;;;;14.90;92.40;;;;;;5076183;28;19991;-82
2021/05/24 10:49:04;;;;;;;;;;;14.90;92.50;;;;;;5075279;28;20211;-83
2021/05/24 10:51:51;;;;;;;;;;;14.90;92.80;;;;;;5076669;28;19909;-82
2021/05/24 10:54:20;;;;;;;;;;;14.90;93.30;;;;;;5075541;28;19962;-82
2021/05/24 10:56:58;;;;;;;;;;;14.90;93.40;;;;;;5076978;28;20474;-82
2021/05/24 10:59:38;;;;;;;;;;;14.80;93.80;;;;;;5074797;28;19923;-82
2021/05/24 11:02:07;;;;;;;;;;;14.80;93.70;;;;;;5076505;28;19919;-83
2021/05/24 11:04:54;;;;;;;;;;;14.90;94.10;;;;;;5075642;28;19997;-82
2021/05/24 11:07:41;;;;;;;;;;;14.90;94.20;;;;;;5091668;28;20106;-81
2021/05/24 11:12:42;;;;;;;;;;;14.90;94.40;;;;;;5077014;28;19908;-82
2021/05/24 11:15:10;;;;;;;;;;;14.90;94.50;;;;;;5076023;28;19909;-84
2021/05/24 11:17:55;;;;;;;;;;;14.80;93.90;;;;;;5077476;28;20269;-83
2021/05/24 11:20:34;;;;;;;;;;;14.90;94.10;;;;;;5076794;28;19920;-83
2021/05/24 11:23:11;;;;;;;;;;;14.90;93.90;;;;;;5078137;28;20006;-83
2021/05/24 11:28:22;;;;;;;;;;;14.80;94.20;;;;;;5078322;28;19915;-82
2021/05/24 11:31:06;;;;;;;;;;;14.80;93.80;;;;;;5077865;28;19938;-83
2021/05/24 11:33:38;;;;;;;;;;;14.70;93.30;;;;;;5077063;28;19908;-83
2021/05/24 11:36:05;;;;;;;;;;;14.70;93.00;;;;;;5078451;28;19970;-84
2021/05/24 11:38:31;;;;;;;;;;;14.60;92.50;;;;;;5077557;28;19939;-82
2021/05/24 11:41:09;;;;;;;;;;;14.60;92.70;;;;;;5075307;28;19912;-83
2021/05/24 11:43:37;;;;;;;;;;;14.60;93.70;;;;;;5074569;28;20411;-83
2021/05/24 11:46:04;;;;;;;;;;;14.60;94.30;;;;;;5077788;28;20178;-83
2021/05/24 11:48:34;;;;;;;;;;;14.50;94.20;;;;;;5075371;28;20049;-83
2021/05/24 11:50:59;;;;;;;;;;;14.50;94.90;;;;;;5074777;28;19934;-84
2021/05/24 11:53:26;;;;;;;;;;;14.40;95.10;;;;;;5074926;28;19913;-83
2021/05/24 11:55:51;;;;;;;;;;;14.30;95.10;;;;;;5074619;28;19952;-84
2021/05/24 11:58:17;;;;;;;;;;;14.30;95.60;;;;;;5076150;28;19916;-81
2021/05/24 12:00:43;;;;;;;;;;;14.30;96.40;;;;;;5074837;28;19961;-83
2021/05/24 12:03:08;;;;;;;;;;;14.30;96.30;;;;;;5074678;28;19908;-83
2021/05/24 12:05:39;;;;;;;;;;;14.20;96.40;;;;;;5074501;28;19932;-83
2021/05/24 12:08:05;;;;;;;;;;;14.00;96.40;;;;;;5074259;28;19909;-83
2021/05/24 12:10:31;;;;;;;;;;;14.00;97.00;;;;;;5075496;28;19915;-84
2021/05/24 12:12:57;;;;;;;;;;;14.00;97.10;;;;;;5074060;28;19912;-84
2021/05/24 12:15:22;;;;;;;;;;;14.00;97.30;;;;;;5074361;28;19909;-83
2021/05/24 12:17:52;;;;;;;;;;;14.00;97.60;;;;;;5075461;28;19913;-84
2021/05/24 12:20:19;;;;;;;;;;;14.00;97.50;;;;;;5073112;28;19912;-82
2021/05/24 12:22:45;;;;;;;;;;;14.00;97.90;;;;;;5073690;28;20022;-83
2021/05/24 12:25:14;;;;;;;;;;;13.90;97.50;;;;;;5073794;28;20050;-82
2021/05/24 12:27:41;;;;;;;;;;;13.90;98.10;;;;;;5073930;28;19935;-82
2021/05/24 12:30:18;;;;;;;;;;;13.90;98.10;;;;;;5075430;28;19974;-83
2021/05/24 12:32:47;;;;;;;;;;;13.90;98.00;;;;;;5074714;28;19995;-83
2021/05/24 12:35:15;;;;;;;;;;;13.90;98.20;;;;;;5074183;28;19995;-82
2021/05/24 12:37:42;;;;;;;;;;;14.00;98.70;;;;;;5075230;28;19909;-84
2021/05/24 12:40:08;;;;;;;;;;;14.00;98.70;;;;;;5072908;28;19917;-82
2021/05/24 12:42:36;;;;;;;;;;;14.00;98.40;;;;;;5074514;28;19967;-83
2021/05/24 12:45:03;;;;;;;;;;;14.00;98.60;;;;;;5073668;28;20003;-82
2021/05/24 12:47:29;;;;;;;;;;;14.10;98.80;;;;;;5075199;28;19908;-82
2021/05/24 12:49:54;;;;;;;;;;;14.10;98.40;;;;;;5074198;28;19908;-82
2021/05/24 12:52:20;;;;;;;;;;;14.10;98.60;;;;;;5076876;28;19984;-84
2021/05/24 12:54:47;;;;;;;;;;;14.20;98.80;;;;;;5078604;28;20354;-82
2021/05/24 12:57:14;;;;;;;;;;;14.20;99.20;;;;;;5078353;28;19916;-83
2021/05/24 12:59:49;;;;;;;;;;;14.20;99.00;;;;;;5077641;28;19920;-84
2021/05/24 13:02:23;;;;;;;;;;;14.30;99.10;;;;;;5079848;28;19909;-82
2021/05/24 13:04:48;;;;;;;;;;;14.20;98.80;;;;;;5078291;28;20019;-83
2021/05/24 13:07:15;;;;;;;;;;;14.20;99.20;;;;;;5077545;28;19951;-83
2021/05/24 13:09:43;;;;;;;;;;;14.20;99.60;;;;;;5076640;28;19999;-83
2021/05/24 13:12:16;;;;;;;;;;;14.20;99.30;;;;;;5078419;28;19909;-83
2021/05/24 13:14:49;;;;;;;;;;;14.20;99.50;;;;;;5077710;28;19995;-83
2021/05/24 13:19:58;;;;;;;;;;;14.30;99.20;;;;;;5077872;28;19912;-83
2021/05/24 13:30:47;;;;;;;;;;;14.40;99.00;;;;;;5077588;28;19931;-84
2021/05/24 13:33:32;;;;;;;;;;;14.40;99.10;;;;;;5076478;28;19908;-82
2021/05/24 13:35:58;;;;;;;;;;;14.40;98.90;;;;;;5076294;28;19912;-84
2021/05/24 13:38:24;;;;;;;;;;;14.40;98.30;;;;;;5075992;28;19915;-83
2021/05/24 13:40:50;;;;;;;;;;;14.40;98.30;;;;;;5075747;28;19908;-82
2021/05/24 13:43:15;;;;;;;;;;;14.40;97.80;;;;;;5075814;28;19930;-82
2021/05/24 13:45:41;;;;;;;;;;;14.30;97.70;;;;;;5076203;28;19954;-82
2021/05/24 13:48:07;;;;;;;;;;;14.30;97.90;;;;;;5077232;28;19912;-82
2021/05/24 13:50:33;;;;;;;;;;;14.30;98.00;;;;;;5075589;28;20369;-82
2021/05/24 13:52:58;;;;;;;;;;;14.30;98.00;;;;;;5075711;28;19908;-84
2021/05/24 13:55:24;;;;;;;;;;;14.40;98.70;;;;;;5077122;28;19909;-82
2021/05/24 13:57:50;;;;;;;;;;;14.30;98.40;;;;;;5075153;28;19908;-82
2021/05/24 14:00:15;;;;;;;;;;;14.30;98.80;;;;;;5076618;28;19957;-82
2021/05/24 14:02:41;;;;;;;;;;;14.30;99.20;;;;;;5075286;28;20266;-82
2021/05/24 14:05:07;;;;;;;;;;;14.30;99.60;;;;;;5076109;28;19913;-84
2021/05/24 14:07:33;;;;;;;;;;;14.10;98.60;;;;;;5076428;28;19915;-83
2021/05/24 14:09:59;;;;;;;;;;;14.00;98.00;;;;;;5075165;28;19909;-83
2021/05/24 14:12:24;;;;;;;;;;;13.90;97.70;;;;;;5076823;28;20256;-83
2021/05/24 14:14:50;;;;;;;;;;;13.80;98.10;;;;;;5076629;28;19916;-82
2021/05/24 14:17:15;;;;;;;;;;;13.70;97.30;;;;;;5074665;28;19931;-83
2021/05/24 14:19:41;;;;;;;;;;;13.70;97.50;;;;;;5075330;28;20067;-83
2021/05/24 14:22:07;;;;;;;;;;;13.70;97.10;;;;;;5075908;28;19920;-84
2021/05/24 14:24:34;;;;;;;;;;;13.60;96.50;;;;;;5074460;28;20353;-84
2021/05/24 14:27:00;;;;;;;;;;;13.60;96.70;;;;;;5074104;28;19909;-83
2021/05/24 14:29:26;;;;;;;;;;;13.60;96.40;;;;;;5073783;28;19953;-82
2021/05/24 14:31:52;;;;;;;;;;;13.60;96.50;;;;;;5074374;28;20325;-84